Time;durP1;ratioP1;P1;durP2;ratioP2;P2;SDS_P1;SDS_P2;PMS_P1;PMS_P2;Temp;Humidity;BMP_temperature;BMP_pressure;BME280_temperature;BME280_humidity;BME280_pressure;Samples;Min_cycle;Max_cycle;Signal;HPM_P1;HPM_P2
2021/12/17 00:02:46;;;;;;;53.33;20.80;;;9.80;99.90;;;;;;4984148;28;20033;-74
2021/12/17 00:04:53;;;;;;;56.20;18.73;;;9.70;99.90;;;;;;5016988;28;20046;-74
2021/12/17 00:07:21;;;;;;;56.70;20.53;;;9.70;99.90;;;;;;4999660;28;20087;-74
2021/12/17 00:09:47;;;;;;;55.03;19.80;;;9.70;99.90;;;;;;5017288;28;20106;-74
2021/12/17 00:12:16;;;;;;;58.70;22.00;;;9.70;99.90;;;;;;4999604;28;20085;-74
2021/12/17 00:14:47;;;;;;;59.50;21.27;;;9.70;99.90;;;;;;5017219;28;20041;-75
2021/12/17 00:17:16;;;;;;;56.37;19.33;;;9.70;99.90;;;;;;5017441;28;20030;-74
2021/12/17 00:20:16;;;;;;;57.70;20.37;;;9.80;99.90;;;;;;5000479;28;20041;-74
2021/12/17 00:49:58;;;;;;;58.80;20.27;;;9.70;99.90;;;;;;4999891;28;20042;-74
2021/12/17 00:52:27;;;;;;;58.33;20.33;;;9.70;99.90;;;;;;4999211;28;20022;-74
2021/12/17 00:54:53;;;;;;;58.77;21.30;;;9.70;99.90;;;;;;5016652;28;20026;-74
2021/12/17 00:57:24;;;;;;;59.47;21.17;;;9.60;99.90;;;;;;4998997;28;20041;-74
2021/12/17 00:59:53;;;;;;;58.43;20.13;;;9.60;99.90;;;;;;5017873;28;20148;-75
2021/12/17 01:02:23;;;;;;;68.03;21.30;;;9.60;99.90;;;;;;5027483;28;20021;-75
2021/12/17 01:04:53;;;;;;;57.63;19.70;;;9.60;99.90;;;;;;5035884;28;20026;-75
2021/12/17 01:07:22;;;;;;;58.80;20.47;;;9.60;99.90;;;;;;5036045;28;20013;-75
2021/12/17 01:09:48;;;;;;;62.23;20.30;;;9.60;99.90;;;;;;5018104;28;20026;-75
2021/12/17 01:12:16;;;;;;;56.70;20.80;;;9.70;99.90;;;;;;5017908;28;20113;-75
2021/12/17 01:14:42;;;;;;;57.97;20.40;;;9.70;99.90;;;;;;5035836;28;20033;-75
2021/12/17 01:17:10;;;;;;;63.70;21.37;;;9.60;99.90;;;;;;5018360;28;20112;-74
2021/12/17 01:25:12;;;;;;;59.35;20.33;;;9.60;99.90;;;;;;5036937;28;20133;-75
2021/12/17 01:35:51;;;;;;;47.17;17.47;;;9.60;99.90;;;;;;5037130;28;20011;-75
2021/12/17 01:44:10;;;;;;;42.42;16.50;;;9.50;99.90;;;;;;5030311;28;20049;-75
2021/12/17 01:46:38;;;;;;;40.50;16.13;;;9.50;99.90;;;;;;5017632;28;20021;-75
2021/12/17 02:00:12;;;;;;;39.43;16.53;;;9.60;99.90;;;;;;5032974;28;20485;-75
2021/12/17 02:02:44;;;;;;;38.27;15.47;;;9.60;99.90;;;;;;5024249;28;20030;-74
2021/12/17 02:05:11;;;;;;;37.83;16.33;;;9.60;99.90;;;;;;5034566;28;20021;-74
2021/12/17 02:07:37;;;;;;;36.87;16.30;;;9.60;99.90;;;;;;5034429;28;20470;-75
2021/12/17 02:19:41;;;;;;;40.50;16.10;;;9.60;99.90;;;;;;5034891;28;20167;-75
2021/12/17 02:31:41;;;;;;;37.33;16.23;;;9.60;99.90;;;;;;5034487;28;20035;-75
2021/12/17 02:34:26;;;;;;;33.87;14.00;;;9.60;99.90;;;;;;5034424;28;20029;-75
2021/12/17 02:36:53;;;;;;;40.97;15.83;;;9.50;99.90;;;;;;5034259;28;20025;-75
2021/12/17 02:47:40;;;;;;;40.17;15.43;;;9.60;99.90;;;;;;5012899;28;20193;-74
2021/12/17 02:50:08;;;;;;;38.97;15.90;;;9.60;99.90;;;;;;5016195;28;20389;-75
2021/12/17 02:52:37;;;;;;;37.07;16.17;;;9.60;99.90;;;;;;5034323;28;20029;-75
2021/12/17 02:55:05;;;;;;;38.70;15.13;;;9.60;99.90;;;;;;5033912;28;20029;-74
2021/12/17 02:57:31;;;;;;;42.20;16.73;;;9.60;99.90;;;;;;5033798;28;20084;-74
2021/12/17 02:59:59;;;;;;;41.50;16.00;;;9.60;99.90;;;;;;5016557;28;20038;-74
2021/12/17 03:02:28;;;;;;;44.77;15.03;;;9.60;99.90;;;;;;5033761;28;20060;-75
2021/12/17 03:04:54;;;;;;;40.40;14.77;;;9.60;99.90;;;;;;5033605;28;20037;-74
2021/12/17 03:07:20;;;;;;;38.10;15.80;;;9.60;99.90;;;;;;4983738;28;20497;-75
2021/12/17 03:10:02;;;;;;;36.80;15.40;;;9.60;99.90;;;;;;5033961;28;20366;-75
2021/12/17 03:12:38;;;;;;;38.73;16.00;;;9.60;99.90;;;;;;5033617;28;20026;-75
2021/12/17 03:15:35;;;;;;;39.83;16.57;;;9.60;99.90;;;;;;5017286;28;20040;-75
2021/12/17 03:26:00;;;;;;;37.83;14.17;;;9.60;99.90;;;;;;5018808;28;20052;-75
2021/12/17 03:28:26;;;;;;;40.07;15.20;;;9.60;99.90;;;;;;5033645;28;20044;-75
2021/12/17 03:30:52;;;;;;;38.50;14.70;;;9.60;99.90;;;;;;5015482;28;20466;-75
2021/12/17 03:33:19;;;;;;;37.73;14.83;;;9.60;99.90;;;;;;5033064;28;20060;-75
2021/12/17 03:35:45;;;;;;;42.57;16.73;;;9.60;99.90;;;;;;5015649;28;20029;-75
2021/12/17 03:38:11;;;;;;;40.23;16.90;;;9.60;99.90;;;;;;5015837;28;20033;-75
2021/12/17 03:40:36;;;;;;;40.07;16.17;;;9.50;99.90;;;;;;5033459;28;20018;-75
2021/12/17 03:43:10;;;;;;;36.70;13.67;;;9.60;99.90;;;;;;5015745;28;20543;-75
2021/12/17 03:45:36;;;;;;;40.03;16.15;;;9.60;99.90;;;;;;5015769;28;20041;-75
2021/12/17 03:48:02;;;;;;;36.27;13.40;;;9.60;99.90;;;;;;5033445;28;20036;-75
2021/12/17 03:50:29;;;;;;;38.20;15.33;;;9.60;99.90;;;;;;5033326;28;20131;-75
2021/12/17 03:52:54;;;;;;;37.20;14.17;;;9.60;99.90;;;;;;5015684;28;20029;-75
2021/12/17 03:55:20;;;;;;;37.67;15.20;;;9.60;99.90;;;;;;5015559;28;20040;-75
2021/12/17 03:57:45;;;;;;;37.07;13.57;;;9.60;99.90;;;;;;5015318;28;20038;-74
2021/12/17 04:00:12;;;;;;;36.57;14.70;;;9.70;99.90;;;;;;5033189;28;20033;-75
2021/12/17 04:02:38;;;;;;;38.17;15.37;;;9.70;99.90;;;;;;5015423;28;20029;-74
2021/12/17 04:05:04;;;;;;;39.73;15.33;;;9.70;99.90;;;;;;5015348;28;20048;-75
2021/12/17 04:07:30;;;;;;;40.13;16.17;;;9.60;99.90;;;;;;4999174;28;20069;-75
2021/12/17 04:09:56;;;;;;;37.23;14.53;;;9.60;99.90;;;;;;5012642;28;20026;-75
2021/12/17 04:12:31;;;;;;;37.20;14.83;;;9.60;99.90;;;;;;4979105;28;20030;-75
2021/12/17 04:14:57;;;;;;;45.70;15.23;;;9.70;99.90;;;;;;4980799;28;20030;-75
2021/12/17 04:17:26;;;;;;;38.57;15.93;;;9.60;99.90;;;;;;4995804;28;20030;-74
2021/12/17 04:19:52;;;;;;;40.53;15.83;;;9.60;99.90;;;;;;4963897;28;20117;-75
2021/12/17 04:22:18;;;;;;;43.43;16.27;;;9.70;99.90;;;;;;4995236;28;20034;-75
2021/12/17 04:24:44;;;;;;;39.00;15.83;;;9.70;99.90;;;;;;5013156;28;20050;-75
2021/12/17 04:27:09;;;;;;;38.43;15.37;;;9.70;99.90;;;;;;5013344;28;20129;-75
2021/12/17 04:29:41;;;;;;;41.10;16.30;;;9.70;99.90;;;;;;5013081;28;20482;-74
2021/12/17 04:32:07;;;;;;;46.13;16.50;;;9.70;99.90;;;;;;4995629;28;20025;-75
2021/12/17 04:34:32;;;;;;;42.13;17.27;;;9.70;99.90;;;;;;4979911;28;20121;-74
2021/12/17 04:36:58;;;;;;;37.97;16.03;;;9.60;99.90;;;;;;5013094;28;20081;-74
2021/12/17 04:39:25;;;;;;;36.53;15.53;;;9.70;99.90;;;;;;5013126;28;20446;-74
2021/12/17 04:42:06;;;;;;;40.70;15.23;;;9.70;99.90;;;;;;4979244;28;20544;-74
2021/12/17 04:44:35;;;;;;;41.10;15.93;;;9.70;99.90;;;;;;5013098;28;20033;-74
2021/12/17 04:57:54;;;;;;;42.30;15.63;;;9.60;99.90;;;;;;5016303;28;20072;-75
2021/12/17 05:00:24;;;;;;;40.57;14.67;;;9.60;99.90;;;;;;4998493;28;20116;-75
2021/12/17 05:02:54;;;;;;;44.93;15.70;;;9.60;99.90;;;;;;4998418;28;20060;-75
2021/12/17 05:05:25;;;;;;;42.90;15.10;;;9.60;99.90;;;;;;4998250;28;20501;-75
2021/12/17 05:07:58;;;;;;;42.50;16.50;;;9.60;99.90;;;;;;5015945;28;20030;-75
2021/12/17 05:20:55;;;;;;;37.03;14.03;;;9.70;99.90;;;;;;5026028;28;20038;-75
2021/12/17 05:23:27;;;;;;;36.47;14.50;;;9.70;99.90;;;;;;5006932;28;20018;-74
2021/12/17 05:25:53;;;;;;;38.97;14.37;;;9.70;99.90;;;;;;5009026;28;20034;-74
2021/12/17 05:28:19;;;;;;;34.23;13.10;;;9.70;99.90;;;;;;5018466;28;20034;-75
2021/12/17 05:30:47;;;;;;;33.27;13.10;;;9.60;99.90;;;;;;4998085;28;20030;-75
2021/12/17 05:33:18;;;;;;;35.13;12.73;;;9.70;99.90;;;;;;4998245;28;20022;-74
2021/12/17 05:35:44;;;;;;;36.80;13.27;;;9.60;99.90;;;;;;4998258;28;20051;-74
2021/12/17 05:38:10;;;;;;;32.90;11.53;;;9.70;99.90;;;;;;5015637;28;20080;-74
2021/12/17 05:40:37;;;;;;;36.77;13.47;;;9.60;99.90;;;;;;5015478;28;20022;-74
2021/12/17 05:43:05;;;;;;;34.50;12.10;;;9.60;99.90;;;;;;5015251;28;20481;-74
2021/12/17 05:45:37;;;;;;;37.83;13.27;;;9.60;99.90;;;;;;5015278;28;20030;-74
2021/12/17 05:48:05;;;;;;;35.27;12.87;;;9.60;99.90;;;;;;4997665;28;20018;-74
2021/12/17 05:50:32;;;;;;;35.03;12.27;;;9.60;99.90;;;;;;4998315;28;20030;-74
2021/12/17 05:52:58;;;;;;;35.87;12.87;;;9.60;99.90;;;;;;4998044;28;20026;-75
2021/12/17 05:55:24;;;;;;;32.57;11.37;;;9.60;99.90;;;;;;5015152;28;20044;-75
2021/12/17 05:57:49;;;;;;;32.83;11.50;;;9.60;99.90;;;;;;5014834;28;20421;-75
2021/12/17 06:00:17;;;;;;;41.37;13.00;;;9.60;99.90;;;;;;5015309;28;20029;-74
2021/12/17 06:02:43;;;;;;;33.63;12.13;;;9.60;99.90;;;;;;4981567;28;20057;-74
2021/12/17 06:05:08;;;;;;;34.67;12.57;;;9.60;99.90;;;;;;4997378;28;20513;-73
2021/12/17 06:07:34;;;;;;;33.30;12.57;;;9.60;99.90;;;;;;4997693;28;20050;-74
2021/12/17 06:10:03;;;;;;;37.47;12.80;;;9.60;99.90;;;;;;4997434;28;20075;-74
2021/12/17 06:12:29;;;;;;;37.57;12.20;;;9.60;99.90;;;;;;4997476;28;20423;-73
2021/12/17 06:14:54;;;;;;;40.23;13.00;;;9.60;99.90;;;;;;4997621;28;20033;-74
2021/12/17 06:17:20;;;;;;;39.23;13.37;;;9.60;99.90;;;;;;4997442;28;20048;-75
2021/12/17 06:19:46;;;;;;;34.07;12.73;;;9.60;99.90;;;;;;4997393;28;20529;-74
2021/12/17 06:22:12;;;;;;;32.23;11.90;;;9.60;99.90;;;;;;5014738;28;20026;-74
2021/12/17 06:24:37;;;;;;;37.90;13.07;;;9.60;99.90;;;;;;4996849;28;20054;-74
2021/12/17 06:27:03;;;;;;;40.67;13.37;;;9.50;99.90;;;;;;4980893;28;20112;-74
2021/12/17 06:29:29;;;;;;;35.60;12.93;;;9.50;99.90;;;;;;4996941;28;20064;-74
2021/12/17 06:31:55;;;;;;;35.07;12.63;;;9.50;99.90;;;;;;4998911;28;20114;-75
2021/12/17 06:34:21;;;;;;;32.13;13.80;;;9.50;99.90;;;;;;5033850;28;20374;-74
2021/12/17 06:36:46;;;;;;;38.87;13.70;;;9.60;99.90;;;;;;4995483;28;20079;-74
2021/12/17 06:39:12;;;;;;;37.93;13.13;;;9.60;99.90;;;;;;5012914;28;20038;-76
2021/12/17 06:41:38;;;;;;;37.60;13.50;;;9.60;99.90;;;;;;4996682;28;20030;-75
2021/12/17 06:44:06;;;;;;;35.30;13.43;;;9.60;99.90;;;;;;5024156;28;20458;-75
2021/12/17 06:46:50;;;;;;;39.23;13.83;;;9.60;99.90;;;;;;5000235;28;20029;-75
2021/12/17 06:49:27;;;;;;;35.15;11.95;;;9.60;99.90;;;;;;4996631;28;20036;-75
2021/12/17 06:55:07;;;;;;;39.92;13.98;;;9.70;99.90;;;;;;5027610;28;20044;-74
2021/12/17 07:10:44;;;;;;;39.97;13.43;;;9.70;99.90;;;;;;5014758;28;20033;-75
2021/12/17 07:34:45;;;;;;;50.13;16.27;;;9.60;99.90;;;;;;5033606;28;20496;-75
2021/12/17 07:39:37;;;;;;;47.07;16.67;;;9.60;99.90;;;;;;5013788;28;20030;-75
2021/12/17 07:42:03;;;;;;;42.77;15.53;;;9.60;99.90;;;;;;5013337;28;20030;-75
2021/12/17 07:44:28;;;;;;;52.70;16.77;;;9.60;99.90;;;;;;5013644;28;20088;-73
2021/12/17 07:46:54;;;;;;;62.83;17.17;;;9.50;99.90;;;;;;5015750;28;20365;-73
2021/12/17 07:49:20;;;;;;;48.97;16.33;;;9.60;99.90;;;;;;5006145;28;20113;-73
2021/12/17 07:51:46;;;;;;;46.97;16.97;;;9.50;99.90;;;;;;5030145;28;20064;-74
2021/12/17 07:54:11;;;;;;;47.83;17.07;;;9.60;99.90;;;;;;4999244;28;20033;-73
2021/12/17 07:56:40;;;;;;;50.00;17.13;;;9.60;99.90;;;;;;5015584;28;20033;-73
2021/12/17 07:59:08;;;;;;;61.57;17.00;;;9.60;99.90;;;;;;5032909;28;20029;-73
2021/12/17 08:01:35;;;;;;;51.50;17.73;;;9.50;99.90;;;;;;5025423;28;20022;-74
2021/12/17 08:04:02;;;;;;;47.27;16.87;;;9.50;99.90;;;;;;4995875;28;20390;-74
2021/12/17 08:06:28;;;;;;;44.87;16.97;;;9.60;99.90;;;;;;5013654;28;20022;-74
2021/12/17 08:08:53;;;;;;;44.87;16.60;;;9.60;99.90;;;;;;4996022;28;20545;-74
2021/12/17 08:11:21;;;;;;;44.33;16.97;;;9.60;99.90;;;;;;4995621;28;20080;-74
2021/12/17 08:13:47;;;;;;;38.80;15.67;;;9.60;99.90;;;;;;4995623;28;20064;-73
2021/12/17 08:31:53;;;;;;;33.17;12.47;;;9.70;99.90;;;;;;5016672;28;20376;-75
2021/12/17 08:34:18;;;;;;;27.83;10.30;;;9.70;99.90;;;;;;4982966;28;20048;-75
2021/12/17 08:36:45;;;;;;;26.50;10.33;;;9.70;99.90;;;;;;4999350;28;20425;-75
2021/12/17 08:39:10;;;;;;;25.30;8.73;;;9.70;99.90;;;;;;4982931;28;20034;-75
2021/12/17 08:41:39;;;;;;;24.00;9.53;;;9.80;99.90;;;;;;4999421;28;20359;-75
2021/12/17 08:44:04;;;;;;;22.07;8.10;;;9.80;99.90;;;;;;4999538;28;20109;-75
2021/12/17 08:46:30;;;;;;;19.60;7.00;;;9.80;99.90;;;;;;4982652;28;20184;-75
2021/12/17 08:48:56;;;;;;;20.87;7.43;;;9.80;99.90;;;;;;4999176;28;20092;-75
2021/12/17 08:51:22;;;;;;;16.60;6.97;;;9.80;99.90;;;;;;5016301;28;20132;-75
2021/12/17 08:53:47;;;;;;;18.00;6.83;;;9.80;99.90;;;;;;4998908;28;20038;-75
2021/12/17 08:56:18;;;;;;;15.63;6.50;;;9.80;99.90;;;;;;4998729;28;20029;-75
2021/12/17 08:58:45;;;;;;;16.00;6.03;;;9.70;99.90;;;;;;4999716;28;20113;-75
2021/12/17 09:01:10;;;;;;;15.40;6.03;;;9.80;99.90;;;;;;5004313;28;20025;-75
2021/12/17 09:03:36;;;;;;;14.47;5.87;;;9.80;99.90;;;;;;5035629;28;20037;-74
2021/12/17 09:06:02;;;;;;;17.10;5.87;;;9.80;99.90;;;;;;5017346;28;20049;-74
2021/12/17 09:08:28;;;;;;;16.37;5.60;;;9.90;99.90;;;;;;5018198;28;20079;-75
2021/12/17 09:10:55;;;;;;;14.70;5.00;;;9.90;99.90;;;;;;5017896;28;20029;-75
2021/12/17 09:13:25;;;;;;;13.97;5.33;;;9.90;99.90;;;;;;5009758;28;20021;-75
2021/12/17 09:16:06;;;;;;;14.33;5.87;;;9.90;99.90;;;;;;5008488;28;20045;-75
2021/12/17 09:18:32;;;;;;;16.40;5.37;;;9.90;99.90;;;;;;5029675;28;20017;-74
2021/12/17 09:20:58;;;;;;;13.73;4.53;;;9.90;99.90;;;;;;5016997;28;20025;-75
2021/12/17 09:23:24;;;;;;;12.57;5.00;;;9.90;99.90;;;;;;5035258;28;20100;-75
2021/12/17 09:25:50;;;;;;;12.27;4.77;;;9.90;99.90;;;;;;5035258;28;20053;-75
2021/12/17 09:28:15;;;;;;;13.30;4.90;;;9.90;99.90;;;;;;5017540;28;20403;-75
2021/12/17 09:30:41;;;;;;;15.27;5.00;;;9.90;99.90;;;;;;5017304;28;20040;-75
2021/12/17 09:33:07;;;;;;;11.37;5.07;;;9.90;99.90;;;;;;5016956;28;20501;-75
2021/12/17 09:35:32;;;;;;;12.90;4.87;;;9.80;99.90;;;;;;5035191;28;20029;-75
2021/12/17 09:37:58;;;;;;;16.60;6.10;;;9.80;99.90;;;;;;5034931;28;20049;-75
2021/12/17 09:40:24;;;;;;;13.93;5.73;;;9.90;99.90;;;;;;5001043;28;20039;-75
2021/12/17 09:42:50;;;;;;;14.07;5.83;;;9.90;99.90;;;;;;5034288;28;20025;-75
2021/12/17 09:45:17;;;;;;;14.23;5.43;;;9.90;99.90;;;;;;5035071;28;20025;-75
2021/12/17 09:47:44;;;;;;;12.73;5.57;;;9.90;99.90;;;;;;5034916;28;20424;-75
2021/12/17 09:50:12;;;;;;;12.30;5.00;;;9.80;99.90;;;;;;5017115;28;20071;-75
2021/12/17 09:52:37;;;;;;;12.80;4.97;;;9.90;99.90;;;;;;5034538;28;20498;-75
2021/12/17 09:55:06;;;;;;;12.10;4.80;;;9.90;99.90;;;;;;5017067;28;20030;-75
2021/12/17 09:57:35;;;;;;;9.83;3.90;;;9.90;99.90;;;;;;5016966;28;20028;-75
2021/12/17 10:00:11;;;;;;;6.93;2.87;;;9.80;99.90;;;;;;5016950;28;20025;-75
2021/12/17 10:02:36;;;;;;;7.70;2.83;;;9.80;99.90;;;;;;5034673;28;20504;-74
2021/12/17 10:05:03;;;;;;;6.47;3.23;;;9.80;99.90;;;;;;5016931;28;20025;-74
2021/12/17 10:07:31;;;;;;;6.23;2.20;;;9.80;99.90;;;;;;5034469;28;20535;-74
2021/12/17 10:10:00;;;;;;;7.77;2.67;;;9.80;99.90;;;;;;5029138;28;20014;-74
2021/12/17 10:12:29;;;;;;;5.30;2.17;;;9.70;99.90;;;;;;5027750;28;20032;-74
2021/12/17 10:15:07;;;;;;;12.20;3.73;;;9.70;99.90;;;;;;5013301;28;20025;-74
2021/12/17 10:17:49;;;;;;;6.63;2.93;;;9.70;99.90;;;;;;5024161;28;20042;-74
2021/12/17 10:20:15;;;;;;;5.03;2.30;;;9.70;99.90;;;;;;5017674;28;20025;-74
2021/12/17 10:22:47;;;;;;;5.80;2.20;;;9.70;99.90;;;;;;4981342;28;20041;-74
2021/12/17 10:25:13;;;;;;;5.97;2.77;;;9.70;99.90;;;;;;5014748;28;20038;-74
2021/12/17 10:27:41;;;;;;;7.30;2.67;;;9.70;99.90;;;;;;5014791;28;20022;-74
2021/12/17 10:30:19;;;;;;;7.13;3.00;;;9.70;99.90;;;;;;5014486;28;20026;-74
2021/12/17 10:32:47;;;;;;;6.90;2.93;;;9.70;99.90;;;;;;4997146;28;20105;-74
2021/12/17 10:35:17;;;;;;;7.03;2.70;;;9.80;99.90;;;;;;5005342;28;20018;-74
2021/12/17 10:37:57;;;;;;;6.43;2.90;;;9.80;99.90;;;;;;5034439;28;20028;-74
2021/12/17 10:41:05;;;;;;;7.90;2.90;;;9.90;99.90;;;;;;5034049;28;20469;-75
2021/12/17 10:43:43;;;;;;;7.57;3.37;;;9.90;99.90;;;;;;5033239;28;20021;-75
2021/12/17 10:49:13;;;;;;;7.30;2.90;;;9.90;99.90;;;;;;5034017;28;20365;-75
2021/12/17 10:54:19;;;;;;;6.43;2.50;;;10.00;99.90;;;;;;5034228;28;20033;-75
2021/12/17 10:56:55;;;;;;;5.00;2.43;;;10.00;99.90;;;;;;5033608;28;20018;-75
2021/12/17 10:59:31;;;;;;;5.57;2.40;;;10.00;99.90;;;;;;5016131;28;20108;-76
2021/12/17 11:02:05;;;;;;;5.47;2.13;;;10.00;99.90;;;;;;5033744;28;20485;-75
2021/12/17 11:04:32;;;;;;;;;;;10.10;99.90;;;;;;5034382;28;20068;-75
2021/12/17 11:07:18;;;;;;;6.37;1.93;;;10.10;99.90;;;;;;5033622;28;19905;-75
2021/12/17 11:09:55;;;;;;;4.53;1.63;;;10.20;99.90;;;;;;5015827;28;20021;-75
2021/12/17 11:12:30;;;;;;;4.60;1.50;;;10.20;99.90;;;;;;5033636;28;20025;-76
2021/12/17 11:15:18;;;;;;;6.03;1.70;;;10.20;99.90;;;;;;5009036;28;20022;-76
2021/12/17 11:17:49;;;;;;;2.77;1.07;;;10.30;99.90;;;;;;5028704;28;20029;-76
2021/12/17 11:20:18;;;;;;;3.63;1.23;;;10.30;99.90;;;;;;5032894;28;20508;-76
2021/12/17 11:22:45;;;;;;;3.03;1.23;;;10.30;99.90;;;;;;5033278;28;20104;-76
2021/12/17 11:25:12;;;;;;;3.07;1.20;;;10.30;99.90;;;;;;5033024;28;20056;-75
2021/12/17 11:27:38;;;;;;;2.60;0.90;;;10.30;99.90;;;;;;5032683;28;20035;-76
2021/12/17 11:30:13;;;;;;;3.93;1.13;;;10.30;99.90;;;;;;5024874;28;20100;-76
2021/12/17 11:32:42;;;;;;;5.07;1.20;;;10.30;99.90;;;;;;5004591;28;20018;-76
2021/12/17 11:35:08;;;;;;;3.90;1.60;;;10.30;99.90;;;;;;5027888;28;20054;-76
2021/12/17 11:37:34;;;;;;;5.05;1.50;;;10.20;99.90;;;;;;4985340;28;20531;-76
2021/12/17 11:40:05;;;;;;;5.13;1.83;;;10.20;99.90;;;;;;4998572;28;20038;-76
2021/12/17 11:42:42;;;;;;;5.53;1.80;;;10.20;99.90;;;;;;5006405;28;20095;-74
2021/12/17 11:45:24;;;;;;;4.60;1.30;;;10.20;99.90;;;;;;5023176;28;20033;-74
2021/12/17 11:47:52;;;;;;;4.23;1.50;;;10.20;99.90;;;;;;5000911;28;20045;-75
2021/12/17 11:50:19;;;;;;;3.57;1.27;;;10.20;99.90;;;;;;5000873;28;20017;-75
2021/12/17 11:52:53;;;;;;;5.23;1.70;;;10.20;99.90;;;;;;5006276;28;20021;-75
2021/12/17 11:55:35;;;;;;;3.83;1.50;;;10.30;99.90;;;;;;5012225;28;20227;-75
2021/12/17 11:58:09;;;;;;;5.23;1.37;;;10.20;99.90;;;;;;5001592;28;20037;-75
2021/12/17 12:00:41;;;;;;;;;;;10.20;99.90;;;;;;5010766;28;20370;-75
2021/12/17 12:03:21;;;;;;;4.33;1.63;;;10.20;99.90;;;;;;5029716;28;19909;-75
2021/12/17 12:05:53;;;;;;;3.40;1.20;;;10.20;99.90;;;;;;5024833;28;20026;-75
2021/12/17 12:08:48;;;;;;;2.63;1.13;;;10.20;99.90;;;;;;5016997;28;20026;-75
2021/12/17 12:11:26;;;;;;;7.10;1.60;;;10.10;99.80;;;;;;5009006;28;20013;-76
2021/12/17 12:13:54;;;;;;;2.53;0.80;;;10.20;99.70;;;;;;5018532;28;20029;-76
2021/12/17 12:16:21;;;;;;;3.80;1.03;;;10.10;99.70;;;;;;5019028;28;20072;-76
2021/12/17 12:18:49;;;;;;;2.50;0.70;;;10.10;99.70;;;;;;5018953;28;20121;-76
2021/12/17 12:21:17;;;;;;;3.07;0.90;;;10.20;99.70;;;;;;5036970;28;20070;-75
2021/12/17 12:23:49;;;;;;;2.00;0.65;;;10.20;99.60;;;;;;5036407;28;20037;-75
2021/12/17 12:26:27;;;;;;;1.85;0.60;;;10.20;99.60;;;;;;5036387;28;20401;-75
2021/12/17 12:28:54;;;;;;;1.70;0.70;;;10.20;99.60;;;;;;5036612;28;20343;-75
2021/12/17 12:31:27;;;;;;;2.00;0.80;;;10.20;99.50;;;;;;5036389;28;20381;-75
2021/12/17 12:34:06;;;;;;;1.67;0.50;;;10.20;99.40;;;;;;5030583;28;20121;-75
2021/12/17 12:36:47;;;;;;;1.47;0.50;;;10.30;99.40;;;;;;5017167;28;20109;-75
2021/12/17 12:39:29;;;;;;;1.98;0.65;;;10.30;99.40;;;;;;4999077;28;20462;-74
2021/12/17 12:41:55;;;;;;;2.50;0.53;;;10.40;99.40;;;;;;4999280;28;20117;-74
2021/12/17 12:44:41;;;;;;;2.13;0.70;;;10.40;99.30;;;;;;4999236;28;20465;-73
2021/12/17 12:47:27;;;;;;;1.98;0.60;;;10.50;99.30;;;;;;4999205;28;20064;-74
2021/12/17 12:50:14;;;;;;;1.80;0.50;;;10.60;99.00;;;;;;5005937;28;20037;-74
2021/12/17 12:52:45;;;;;;;2.25;0.60;;;10.60;98.70;;;;;;5016254;28;20014;-74
2021/12/17 12:55:29;;;;;;;2.77;0.67;;;10.70;98.70;;;;;;4998922;28;20120;-74
2021/12/17 12:58:07;;;;;;;2.55;0.70;;;10.70;98.50;;;;;;5016551;28;20072;-74
2021/12/17 13:00:41;;;;;;;1.90;0.70;;;10.70;98.50;;;;;;5016553;28;20033;-75
2021/12/17 13:03:12;;;;;;;1.77;0.60;;;10.80;98.40;;;;;;4999041;28;20026;-75
2021/12/17 13:05:40;;;;;;;1.95;0.70;;;10.70;98.30;;;;;;4999139;28;20026;-75
2021/12/17 13:08:08;;;;;;;1.70;0.50;;;10.80;98.30;;;;;;5012363;28;20448;-75
2021/12/17 13:10:37;;;;;;;3.63;0.80;;;10.90;98.20;;;;;;5024926;28;20551;-76
2021/12/17 13:16:06;;;;;;;1.60;0.60;;;11.00;98.10;;;;;;5035522;28;20029;-76
2021/12/17 13:26:58;;;;;;;2.15;0.75;;;11.10;97.80;;;;;;5035346;28;20119;-75
2021/12/17 13:29:31;;;;;;;2.63;1.08;;;11.10;97.60;;;;;;5035103;28;20037;-75
2021/12/17 13:32:01;;;;;;;1.25;0.73;;;11.10;97.30;;;;;;5017628;28;20029;-76
2021/12/17 13:34:49;;;;;;;1.85;0.80;;;11.10;97.30;;;;;;5017672;28;20025;-76
2021/12/17 13:37:19;;;;;;;3.88;1.08;;;11.00;97.20;;;;;;5035121;28;20509;-74
2021/12/17 13:39:49;;;;;;;2.67;0.82;;;11.00;97.10;;;;;;5035497;28;20084;-75
2021/12/17 13:42:35;;;;;;;1.50;0.80;;;11.00;97.10;;;;;;5017725;28;20030;-75
2021/12/17 13:45:06;;;;;;;3.03;0.77;;;11.00;97.00;;;;;;5017356;28;20056;-75
2021/12/17 13:47:33;;;;;;;4.15;1.08;;;11.00;97.00;;;;;;5001152;28;20025;-75
2021/12/17 13:50:21;;;;;;;3.00;0.88;;;10.90;97.00;;;;;;5035138;28;20470;-74
2021/12/17 13:53:03;;;;;;;3.30;1.40;;;10.90;96.90;;;;;;5035418;28;20385;-75
2021/12/17 13:55:38;;;;;;;3.75;0.80;;;10.90;96.80;;;;;;5017214;28;20091;-75
2021/12/17 13:58:09;;;;;;;4.28;1.05;;;10.90;96.80;;;;;;5017056;28;20064;-75
2021/12/17 14:00:39;;;;;;;2.95;1.08;;;10.90;96.70;;;;;;5017673;28;20473;-75
2021/12/17 14:03:09;;;;;;;4.55;1.30;;;10.90;96.70;;;;;;5034925;28;20029;-75
2021/12/17 14:05:44;;;;;;;2.15;1.05;;;10.90;96.70;;;;;;5017288;28;20060;-75
2021/12/17 14:08:13;;;;;;;3.30;1.00;;;10.90;96.60;;;;;;5017370;28;20571;-75
2021/12/17 14:10:40;;;;;;;3.45;1.13;;;10.90;96.50;;;;;;5034850;28;20484;-75
2021/12/17 14:13:18;;;;;;;2.53;0.83;;;10.90;96.50;;;;;;5034674;28;20402;-75
2021/12/17 14:15:44;;;;;;;2.30;1.17;;;10.80;96.50;;;;;;5034420;28;20033;-73
2021/12/17 14:18:14;;;;;;;2.07;1.00;;;10.80;96.40;;;;;;5032268;28;20056;-72
2021/12/17 14:20:51;;;;;;;4.47;1.40;;;10.80;96.30;;;;;;5016298;28;20037;-73
2021/12/17 14:23:23;;;;;;;4.50;1.33;;;10.80;96.30;;;;;;5016031;28;20033;-73
2021/12/17 14:26:05;;;;;;;2.37;1.00;;;10.80;96.40;;;;;;5015769;28;20156;-72
2021/12/17 14:28:32;;;;;;;4.72;1.40;;;10.70;96.40;;;;;;5027294;28;20496;-72
2021/12/17 14:31:03;;;;;;;3.50;1.10;;;10.70;96.50;;;;;;5020929;28;20137;-71
2021/12/17 14:33:32;;;;;;;2.50;0.93;;;10.70;96.50;;;;;;5005554;28;20412;-71
2021/12/17 14:36:04;;;;;;;3.00;1.37;;;10.70;96.50;;;;;;5023289;28;20033;-71
2021/12/17 14:38:37;;;;;;;2.50;1.33;;;10.70;96.50;;;;;;5024302;28;20017;-71
2021/12/17 14:41:04;;;;;;;3.50;1.50;;;10.70;96.50;;;;;;5024654;28;20025;-72
2021/12/17 14:43:42;;;;;;;7.25;1.98;;;10.70;96.50;;;;;;5018939;28;20028;-73
2021/12/17 14:46:23;;;;;;;3.80;1.97;;;10.70;96.50;;;;;;4995531;28;20029;-72
2021/12/17 15:05:06;;;;;;;4.32;1.67;;;10.60;96.40;;;;;;5033559;28;20040;-74
2021/12/17 15:07:32;;;;;;;5.07;1.70;;;10.50;96.40;;;;;;5034030;28;20132;-74
2021/12/17 15:09:58;;;;;;;5.70;2.07;;;10.50;96.70;;;;;;5016328;28;20505;-74
2021/12/17 15:14:59;;;;;;;4.67;1.87;;;10.50;96.40;;;;;;4998074;28;20121;-73
2021/12/17 15:17:24;;;;;;;3.60;1.80;;;10.50;96.50;;;;;;5013728;28;20026;-73
2021/12/17 15:19:51;;;;;;;6.40;1.83;;;10.40;96.50;;;;;;5013713;28;20041;-74
2021/12/17 15:22:16;;;;;;;3.33;1.80;;;10.40;96.60;;;;;;5013823;28;20033;-73
2021/12/17 15:24:42;;;;;;;5.67;1.93;;;10.50;96.70;;;;;;5013555;28;20034;-73
2021/12/17 15:27:08;;;;;;;3.90;1.90;;;10.40;96.70;;;;;;5013510;28;20049;-73
2021/12/17 15:29:34;;;;;;;3.97;2.15;;;10.40;96.90;;;;;;4995419;28;20025;-73
2021/12/17 15:32:00;;;;;;;5.43;2.35;;;10.40;96.60;;;;;;4995972;28;20037;-73
2021/12/17 15:34:26;;;;;;;5.73;1.77;;;10.40;96.70;;;;;;4996084;28;20056;-73
2021/12/17 15:36:53;;;;;;;4.17;2.20;;;10.40;96.70;;;;;;4996129;28;20030;-73
2021/12/17 15:39:18;;;;;;;4.13;2.10;;;10.40;96.60;;;;;;5008984;28;20034;-74
2021/12/17 15:41:44;;;;;;;5.53;2.30;;;10.40;96.70;;;;;;5015626;28;20112;-73
2021/12/17 15:44:11;;;;;;;4.97;2.20;;;10.40;96.70;;;;;;4999491;28;20037;-73
2021/12/17 15:46:37;;;;;;;5.27;1.77;;;10.40;96.70;;;;;;5015566;28;20055;-73
2021/12/17 15:49:04;;;;;;;5.25;2.47;;;10.40;96.70;;;;;;5015785;28;20045;-74
2021/12/17 15:51:31;;;;;;;5.93;2.60;;;10.40;96.80;;;;;;5015416;28;20030;-75
2021/12/17 15:53:57;;;;;;;7.13;3.67;;;10.40;96.70;;;;;;5033004;28;20100;-75
2021/12/17 15:56:23;;;;;;;7.90;3.20;;;10.40;96.80;;;;;;5032846;28;20049;-74
2021/12/17 15:58:49;;;;;;;7.80;2.57;;;10.30;96.80;;;;;;4998823;28;20099;-74
2021/12/17 16:01:15;;;;;;;6.53;2.73;;;10.40;96.70;;;;;;5025788;28;20030;-76
2021/12/17 16:03:42;;;;;;;5.83;3.03;;;10.40;96.80;;;;;;5013315;28;20034;-73
2021/12/17 16:06:09;;;;;;;6.77;3.33;;;10.40;96.70;;;;;;5013187;28;20026;-73
2021/12/17 16:08:39;;;;;;;7.37;3.47;;;10.40;96.70;;;;;;4978983;28;20367;-74
2021/12/17 16:21:56;;;;;;;7.63;4.35;;;10.20;96.80;;;;;;5013262;28;20311;-74
2021/12/17 16:24:22;;;;;;;8.33;4.43;;;10.20;96.90;;;;;;5020665;28;20135;-75
2021/12/17 16:26:48;;;;;;;8.37;4.20;;;10.20;96.90;;;;;;5011267;28;20494;-74
2021/12/17 16:29:18;;;;;;;12.40;5.50;;;10.20;96.90;;;;;;5011940;28;20087;-74
2021/12/17 16:31:45;;;;;;;5.70;3.73;;;10.20;96.90;;;;;;5011973;28;20026;-74
2021/12/17 16:34:10;;;;;;;8.83;3.73;;;10.20;97.00;;;;;;5013238;28;20471;-74